Flight Track Log - Related Links

Times and Time Zones

All times are in EDT time to prevent confusion due to time zone crossing. See the UCA3596 flight status page for this flight to view local times or setup timezone preferences in your user account.


Time Position Orientation Groundspeed Altitude Reporting Facility
EDT Latitude Longitude Course Direction KTS MPH feet Rate Location/Type
Sat 10:45:49 AM 40.6667 -74.1833 342° North 137 158 1,300  Level New York TRACON
Sat 10:46:49 AM 40.6333 -74.2000 201° Southwest 151 174 2,800 1,650 Climbing New York TRACON
Sat 10:47:49 AM 40.6667 -74.2333 323° Northwest 156 180 4,600 1,900 Climbing New York TRACON
Sat 10:48:49 AM 40.7167 -74.2500 346° North 146 168 6,600 1,950 Climbing New York TRACON
Sat 10:49:49 AM 40.7500 -74.2667 339° North 149 171 8,500 1,619 Climbing New York TRACON
Sat 10:50:55 AM 40.7667 -74.3167 294° West 157 181 10,000 750 Climbing New York TRACON
Sat 10:51:00 AM 41.0961 -74.3557 342° North  Level FlightAware Approximate
Sat 10:51:49 AM 40.8000 -74.3667 311° West 218 251 10,000  Level New York TRACON
Sat 10:52:55 AM 40.8833 -74.3833 351° North 252 290 10,400 952 Climbing New York TRACON
Sat 10:53:55 AM 40.9333 -74.4167 333° Northwest 215 247 12,000 793 Climbing New York TRACON
Sat 10:54:56 AM 41.0000 -74.4333 349° North 240 276 12,000  Level New York TRACON
Sat 10:55:56 AM 41.0667 -74.4667 339° North 259 298 12,000  Level New York TRACON
Sat 10:58:15 AM 41.2269 -74.5256 345° North 267 307 12,000  Level New York Center
Sat 10:59:16 AM 41.2989 -74.5489 346° North 261 300 12,000  Level New York Center
Sat 11:00:17 AM 41.3669 -74.5747 344° North 261 300 12,000  Level New York Center
Sat 11:01:18 AM 41.4256 -74.6278 326° Northwest 261 300 12,000  Level New York Center
Sat 11:02:16 AM 41.4667 -74.7050 305° West 254 292 12,000  Level New York Center
Sat 11:03:17 AM 41.5056 -74.7903 301° West 269 310 12,000  Level New York Center
Sat 11:04:18 AM 41.5467 -74.8706 304° West 269 310 12,000 50 Level New York Center
Sat 11:05:16 AM 41.5894 -74.9564 304° West 269 310 12,100 50 Climbing New York Center
Sat 11:06:17 AM 41.6303 -75.0367 304° West 269 310 12,100  Level New York Center
Sat 11:07:18 AM 41.6669 -75.1139 302° West 269 310 12,100  Level New York Center
Sat 11:08:15 AM 41.7056 -75.1942 303° West 269 310 12,100  Level New York Center
Sat 11:09:16 AM 41.7503 -75.2833 304° West 269 310 12,100 -443 Level New York Center
Sat 11:10:17 AM 41.7906 -75.3694 302° West 269 310 11,200 -1,131 Descending New York Center
Sat 11:11:18 AM 41.8308 -75.4586 301° West 274 315 9,800 -1,462 Descending New York Center
Sat 11:12:16 AM 41.8742 -75.5200 313° West 264 304 8,300 -1,462 Descending New York Center
Sat 11:13:17 AM 41.9372 -75.5581 336° Northwest 248 285 6,900 -1,563 Descending New York Center
Sat 11:14:15 AM 42.0108 -75.5914 341° North 253 291 5,200 -950 Descending New York Center
Sat 11:15:17 AM 42.0575 -75.6169 338° Northwest 240 276 5,000 -89 Descending New York Center
Sat 11:16:30 AM 42.1375 -75.6508 343° North 229 264 5,000 -406 Level New York Center
Sat 11:17:30 AM 42.1939 -75.6942 330° Northwest 229 264 4,100 -508 Descending New York Center
Sat 11:18:28 AM 42.2506 -75.7322 334° Northwest 229 264 4,000 -303 Descending New York Center
Sat 11:19:29 AM 42.2792 -75.7958 301° West 223 257 3,500 -443 Descending New York Center
Sat 11:20:30 AM 42.2492 -75.8664 240° Southwest 172 198 3,100 -250 Descending New York Center
Sat 11:21:29 AM 42.2439 -75.9417 265° West 194 223 3,000 -305 Descending New York Center
Sat 11:22:28 AM 42.2414 -75.9975 267° West 182 209 2,500 -300 Descending New York Center
Sat 11:23:29 AM 42.2381 -76.0700 266° West 173 199 2,400 -98 Descending New York Center

Login

Don't have an account? Register now (free) for customized features, flight alerts, and more!